Spofford, NH

5:49 AM EDT on September 26, 2016 (GMT -0400)
| | Change Station
Active Advisory: Frost Advisory

Elev -9999 ft 0.00 °N, 0.00 °E | Updated

Clear
Clear
35 °F
Feels Like 35 °F
N
1
Wind Variable Wind from North
Gusts mph

Today
High -- | Low -- °F
--% Chance of Precip.
Yesterday
High -- | Low -- °F
Precip. -- in
Pressure 30.23 in
Visibility 1.2 miles
Clouds Overcast 200 ft
Dew Point 32 °F
Humidity 89%
Rainfall --
Snow Depth Not available.
6:41 AM 6:39 PM
Waning Crescent, 20% visible
SPECI KEEN 260942Z AUTO 00000KT 1 1/4SM BR OVC002 00/M01 A3023 RMK AO2 FZRANO
Pressure 30.23 in
Visibility 1.2 miles
Clouds Overcast 200 ft
Dew Point 32 °F
Humidity 89%
Rainfall --
Snow Depth Not available.
6:41 AM 6:39 PM
Waning Crescent, 20% visible
SPECI KEEN 260942Z AUTO 00000KT 1 1/4SM BR OVC002 00/M01 A3023 RMK AO2 FZRANO

10-Day Weather Forecast

Almanac

Astronomy

Sep. 26, 2016 Rise Set
Actual Time
Civil Twilight
Nautical Twilight
Astronomical Twilight
Moon
Length of Visible Light
Length of Day
Tomorrow will be .
, % of the Moon is Illuminated

Today's Extremes

State Highs State Lows

Community

WunderPhotos

Upload Photos

1,941,852 photos uploaded!

WunderBlog® & News

Nearby

Air Quality

  Air Quality AQ Index Pollutant
Not available.

Snow Depth

Station Depth Elevation

Earthquake Activity

City Distance Mag. Time & Date
Minimum magnitude displayed is 2.5.

Coastal Water Temperatures

Place Temperature

Stations

Nearby Weather Stations

Station Location Temp. Windchill Dew Point Humidity Wind Precip. Elev Updated Type
                   

Watches & Warnings

Frost Advisory
Issued: 3:52 AM EDT Sep. 26, 2016 – National Weather Service

... Frost advisory remains in effect until 8 am EDT this morning...

* temperatures... in the mid 30s.

* Timing... through 8 am.

* Impacts... frost may damage or kill sensitive vegetation.

Precautionary/preparedness actions...

A frost advisory means that widespread frost is expected.
Sensitive outdoor plants may be killed if left uncovered.